Time;durP1;ratioP1;P1;durP2;ratioP2;P2;SDS_P1;SDS_P2;PMS_P1;PMS_P2;Temp;Humidity;BMP_temperature;BMP_pressure;BME280_temperature;BME280_humidity;BME280_pressure;Samples;Min_cycle;Max_cycle;Signal;HPM_P1;HPM_P2
2023/09/09 00:00:57;;;;;;;468.90;235.90;;;;;;;;;;5026924;28;20179;-48
2023/09/09 00:03:23;;;;;;;444.83;222.50;;;;;;;;;;5027517;28;20215;-48
2023/09/09 00:05:49;;;;;;;443.47;220.90;;;;;;;;;;5026779;28;20220;-48
2023/09/09 00:08:16;;;;;;;441.73;220.70;;;;;;;;;;5027238;28;20215;-48
2023/09/09 00:10:42;;;;;;;465.20;228.33;;;;;;;;;;5026375;28;20258;-48
2023/09/09 00:13:09;;;;;;;473.10;230.73;;;;;;;;;;5026335;28;20277;-48
2023/09/09 00:15:35;;;;;;;484.20;230.73;;;;;;;;;;5027098;28;20258;-47
2023/09/09 00:18:02;;;;;;;440.37;217.07;;;;;;;;;;5026653;28;20208;-48
2023/09/09 00:20:29;;;;;;;431.87;215.57;;;;;;;;;;5026615;28;20662;-48
2023/09/09 00:22:55;;;;;;;463.17;229.20;;;;;;;;;;5026747;28;20219;-47
2023/09/09 00:25:21;;;;;;;448.47;223.23;;;;;;;;;;5026805;28;20246;-48
2023/09/09 00:27:47;;;;;;;467.57;228.57;;;;;;;;;;5026925;28;20179;-47
2023/09/09 00:30:13;;;;;;;448.33;222.23;;;;;;;;;;5026393;28;20214;-47
2023/09/09 00:32:39;;;;;;;472.30;228.93;;;;;;;;;;5026031;28;20730;-48
2023/09/09 00:35:05;;;;;;;451.53;222.77;;;;;;;;;;5026051;28;20234;-48
2023/09/09 00:37:31;;;;;;;454.43;221.20;;;;;;;;;;5026345;28;20208;-48
2023/09/09 00:39:57;;;;;;;456.53;224.67;;;;;;;;;;5026349;28;20191;-48
2023/09/09 00:42:23;;;;;;;467.93;222.07;;;;;;;;;;5026709;28;20606;-48
2023/09/09 00:44:49;;;;;;;436.90;213.17;;;;;;;;;;5026488;28;20574;-49
2023/09/09 00:47:15;;;;;;;473.23;229.97;;;;;;;;;;5025986;28;20219;-48
2023/09/09 00:49:41;;;;;;;463.20;224.17;;;;;;;;;;5025919;28;20702;-48
2023/09/09 00:52:07;;;;;;;466.13;219.13;;;;;;;;;;5025795;28;20335;-48
2023/09/09 00:54:33;;;;;;;476.47;229.07;;;;;;;;;;5026263;28;20196;-47
2023/09/09 00:57:00;;;;;;;484.17;231.70;;;;;;;;;;5025834;28;20223;-48
2023/09/09 00:59:26;;;;;;;437.97;212.83;;;;;;;;;;5026514;28;20247;-47
2023/09/09 01:01:52;;;;;;;444.47;210.33;;;;;;;;;;5025944;28;20219;-47
2023/09/09 01:04:19;;;;;;;454.27;213.00;;;;;;;;;;5026259;28;20246;-47
2023/09/09 01:06:45;;;;;;;483.10;228.00;;;;;;;;;;5025832;28;20471;-48
2023/09/09 01:09:11;;;;;;;486.43;227.97;;;;;;;;;;5026399;28;20184;-48
2023/09/09 01:11:37;;;;;;;471.37;224.70;;;;;;;;;;5025731;28;20235;-48
2023/09/09 01:14:03;;;;;;;455.27;220.53;;;;;;;;;;5025936;28;20254;-47
2023/09/09 01:16:30;;;;;;;440.37;206.93;;;;;;;;;;5025709;28;20232;-47
2023/09/09 01:18:56;;;;;;;470.57;215.13;;;;;;;;;;5026250;28;20619;-47
2023/09/09 01:21:24;;;;;;;447.50;207.90;;;;;;;;;;5026430;28;20248;-48
2023/09/09 01:23:50;;;;;;;481.23;222.00;;;;;;;;;;5025541;28;20598;-47
2023/09/09 01:26:16;;;;;;;485.90;221.53;;;;;;;;;;5025786;28;20223;-48
2023/09/09 01:28:42;;;;;;;472.60;215.13;;;;;;;;;;5025525;28;20552;-48
2023/09/09 01:31:08;;;;;;;441.93;203.83;;;;;;;;;;5025774;28;20790;-48
2023/09/09 01:33:34;;;;;;;486.73;224.23;;;;;;;;;;5026051;28;20203;-48
2023/09/09 01:36:00;;;;;;;451.27;208.50;;;;;;;;;;5025560;28;20224;-48
2023/09/09 01:38:26;;;;;;;472.73;218.70;;;;;;;;;;5025629;28;20599;-47
2023/09/09 01:40:52;;;;;;;423.73;197.10;;;;;;;;;;5026293;28;20216;-48
2023/09/09 01:43:18;;;;;;;470.07;214.40;;;;;;;;;;5029206;28;20223;-48
2023/09/09 01:45:44;;;;;;;468.37;210.93;;;;;;;;;;5029159;28;20180;-48
2023/09/09 01:48:10;;;;;;;460.67;208.30;;;;;;;;;;5029775;28;20573;-47
2023/09/09 01:50:36;;;;;;;479.13;217.17;;;;;;;;;;5029076;28;20743;-47
2023/09/09 01:53:03;;;;;;;457.10;209.67;;;;;;;;;;5029315;28;20277;-49
2023/09/09 01:55:29;;;;;;;430.33;201.43;;;;;;;;;;5029483;28;20224;-47
2023/09/09 01:57:55;;;;;;;455.53;211.30;;;;;;;;;;5029321;28;20196;-47
2023/09/09 02:00:21;;;;;;;473.73;219.37;;;;;;;;;;5029831;28;20176;-47
2023/09/09 02:02:47;;;;;;;481.70;215.80;;;;;;;;;;5028816;28;20694;-47
2023/09/09 02:05:13;;;;;;;479.00;214.90;;;;;;;;;;5028815;28;20560;-47
2023/09/09 02:07:39;;;;;;;493.63;226.50;;;;;;;;;;5028782;28;20675;-48
2023/09/09 02:10:05;;;;;;;432.50;204.87;;;;;;;;;;5028925;28;20219;-47
2023/09/09 02:12:31;;;;;;;439.10;202.23;;;;;;;;;;5029654;28;20176;-47
2023/09/09 02:14:57;;;;;;;461.13;207.30;;;;;;;;;;5028963;28;20216;-47
2023/09/09 02:17:23;;;;;;;443.73;199.70;;;;;;;;;;5028895;28;20215;-47
2023/09/09 02:19:54;;;;;;;477.27;214.60;;;;;;;;;;5028936;28;20259;-47
2023/09/09 02:22:20;;;;;;;483.13;217.70;;;;;;;;;;5028752;28;20589;-47
2023/09/09 02:24:47;;;;;;;460.70;210.40;;;;;;;;;;5028594;28;20199;-47
2023/09/09 02:27:13;;;;;;;462.47;208.67;;;;;;;;;;5029451;28;20187;-47
2023/09/09 02:29:39;;;;;;;463.77;204.63;;;;;;;;;;5028565;28;20211;-47
2023/09/09 02:32:05;;;;;;;439.53;198.57;;;;;;;;;;5028950;28;20555;-47
2023/09/09 02:34:31;;;;;;;473.63;210.17;;;;;;;;;;5028734;28;20231;-47
2023/09/09 02:37:16;;;;;;;444.93;201.53;;;;;;;;;;5029020;28;20274;-47
2023/09/09 02:39:43;;;;;;;469.07;213.67;;;;;;;;;;5028325;28;20168;-47
2023/09/09 02:42:13;;;;;;;471.70;216.47;;;;;;;;;;5028940;28;20208;-47
2023/09/09 02:44:39;;;;;;;476.77;218.93;;;;;;;;;;5028189;28;20265;-47
2023/09/09 02:47:05;;;;;;;445.73;204.30;;;;;;;;;;5028316;28;20208;-47
2023/09/09 02:49:31;;;;;;;452.27;205.87;;;;;;;;;;5028160;28;20239;-47
2023/09/09 02:51:57;;;;;;;447.13;205.37;;;;;;;;;;5028421;28;20414;-47
2023/09/09 02:54:23;;;;;;;449.37;203.17;;;;;;;;;;5028805;28;20192;-47
2023/09/09 02:56:49;;;;;;;463.63;211.17;;;;;;;;;;5028136;28;20286;-47
2023/09/09 02:59:15;;;;;;;450.00;201.67;;;;;;;;;;5028068;28;20238;-47
2023/09/09 03:01:40;;;;;;;462.57;205.90;;;;;;;;;;5027853;28;20322;-47
2023/09/09 03:04:06;;;;;;;445.40;205.97;;;;;;;;;;5027727;28;20596;-47
2023/09/09 03:06:32;;;;;;;458.03;204.33;;;;;;;;;;5028311;28;20231;-47
2023/09/09 03:08:58;;;;;;;444.70;203.17;;;;;;;;;;5028152;28;20226;-47
2023/09/09 03:11:24;;;;;;;471.27;213.60;;;;;;;;;;5027839;28;20546;-47
2023/09/09 03:13:50;;;;;;;439.17;197.50;;;;;;;;;;5027841;28;20613;-47
2023/09/09 03:16:16;;;;;;;475.33;212.57;;;;;;;;;;5009601;28;20238;-47
2023/09/09 03:18:42;;;;;;;459.00;204.37;;;;;;;;;;5027238;28;20184;-47
2023/09/09 03:21:08;;;;;;;472.20;216.63;;;;;;;;;;5027622;28;20168;-47
2023/09/09 03:23:34;;;;;;;473.43;217.47;;;;;;;;;;5027515;28;20285;-47
2023/09/09 03:26:00;;;;;;;459.67;207.90;;;;;;;;;;5027623;28;20266;-47
2023/09/09 03:28:26;;;;;;;454.57;211.23;;;;;;;;;;5028101;28;20212;-47
2023/09/09 03:30:53;;;;;;;446.07;204.13;;;;;;;;;;5027655;28;20199;-47
2023/09/09 03:33:19;;;;;;;426.03;198.00;;;;;;;;;;5027959;28;20227;-47
2023/09/09 03:35:45;;;;;;;478.27;216.43;;;;;;;;;;5018800;28;20221;-48
2023/09/09 03:38:11;;;;;;;471.43;216.80;;;;;;;;;;5007322;28;20228;-47
2023/09/09 03:40:37;;;;;;;468.60;216.10;;;;;;;;;;5007333;28;20359;-47
2023/09/09 03:43:03;;;;;;;438.20;197.23;;;;;;;;;;5007579;28;20232;-47
2023/09/09 03:45:29;;;;;;;436.70;199.37;;;;;;;;;;5008247;28;20506;-49
2023/09/09 03:47:55;;;;;;;454.03;209.83;;;;;;;;;;5007754;28;20721;-47
2023/09/09 03:50:21;;;;;;;448.10;207.50;;;;;;;;;;5007494;28;20648;-47
2023/09/09 03:52:47;;;;;;;466.77;211.47;;;;;;;;;;5007300;28;20278;-47
2023/09/09 03:55:13;;;;;;;455.47;209.23;;;;;;;;;;5007391;28;20465;-47
2023/09/09 03:57:39;;;;;;;480.83;216.37;;;;;;;;;;5007416;28;20531;-49
2023/09/09 04:00:07;;;;;;;444.83;205.13;;;;;;;;;;5006929;28;20611;-47
2023/09/09 04:02:33;;;;;;;458.00;210.07;;;;;;;;;;5007154;28;20221;-48
2023/09/09 04:04:59;;;;;;;437.27;202.87;;;;;;;;;;5006794;28;20322;-47
2023/09/09 04:07:25;;;;;;;477.70;214.77;;;;;;;;;;5007214;28;20263;-47
2023/09/09 04:09:53;;;;;;;443.83;203.53;;;;;;;;;;5007493;28;20185;-47
2023/09/09 04:12:19;;;;;;;474.87;216.80;;;;;;;;;;5007284;28;20620;-49
2023/09/09 04:14:45;;;;;;;475.13;213.50;;;;;;;;;;5006648;28;20223;-47
2023/09/09 04:17:10;;;;;;;451.83;205.73;;;;;;;;;;5006366;28;20656;-47
2023/09/09 04:19:36;;;;;;;477.80;215.50;;;;;;;;;;5006826;28;20312;-47
2023/09/09 04:22:02;;;;;;;483.50;216.53;;;;;;;;;;5006462;28;20229;-47
2023/09/09 04:24:28;;;;;;;438.50;200.10;;;;;;;;;;5016636;28;20204;-47
2023/09/09 04:26:54;;;;;;;443.63;198.47;;;;;;;;;;5026514;28;20299;-47
2023/09/09 04:29:20;;;;;;;444.10;201.57;;;;;;;;;;5026651;28;20306;-47
2023/09/09 04:31:47;;;;;;;463.10;207.53;;;;;;;;;;5026369;28;20224;-47
2023/09/09 04:34:13;;;;;;;471.93;208.07;;;;;;;;;;5025848;28;20228;-47
2023/09/09 04:36:39;;;;;;;454.70;201.80;;;;;;;;;;5026789;28;20204;-50
2023/09/09 04:39:05;;;;;;;431.13;195.80;;;;;;;;;;5026417;28;20235;-47
2023/09/09 04:41:31;;;;;;;428.73;193.23;;;;;;;;;;5026130;28;20969;-47
2023/09/09 04:43:57;;;;;;;475.47;210.80;;;;;;;;;;5026558;28;20228;-47
2023/09/09 04:46:23;;;;;;;445.60;201.67;;;;;;;;;;5026467;28;20251;-47
2023/09/09 04:48:52;;;;;;;470.50;214.93;;;;;;;;;;5008303;28;20176;-47
2023/09/09 04:51:18;;;;;;;475.33;211.27;;;;;;;;;;5026289;28;20169;-47
2023/09/09 04:53:44;;;;;;;482.70;212.67;;;;;;;;;;5025595;28;20220;-47
2023/09/09 04:56:10;;;;;;;440.73;201.20;;;;;;;;;;5025829;28;20220;-47
2023/09/09 04:58:36;;;;;;;471.20;210.40;;;;;;;;;;5026083;28;20319;-47
2023/09/09 05:01:02;;;;;;;439.33;198.50;;;;;;;;;;5026192;28;20224;-47
2023/09/09 05:03:28;;;;;;;466.33;209.00;;;;;;;;;;5026254;28;20596;-47
2023/09/09 05:05:54;;;;;;;457.57;206.93;;;;;;;;;;5025701;28;20698;-48
2023/09/09 05:08:20;;;;;;;463.60;208.40;;;;;;;;;;5025573;28;20227;-48
2023/09/09 05:10:46;;;;;;;471.27;206.67;;;;;;;;;;5025438;28;20231;-48
2023/09/09 05:13:12;;;;;;;457.10;202.10;;;;;;;;;;5025821;28;20236;-48
2023/09/09 05:15:38;;;;;;;470.40;211.07;;;;;;;;;;5026130;28;20697;-48
2023/09/09 05:18:04;;;;;;;477.37;212.20;;;;;;;;;;5026476;28;20227;-48
2023/09/09 05:20:30;;;;;;;453.20;200.07;;;;;;;;;;5029890;28;20215;-47
2023/09/09 05:22:56;;;;;;;442.27;198.07;;;;;;;;;;5029667;28;20231;-48
2023/09/09 05:25:22;;;;;;;476.97;211.77;;;;;;;;;;5029794;28;20698;-48
2023/09/09 05:27:48;;;;;;;462.93;208.43;;;;;;;;;;5029249;28;20695;-48
2023/09/09 05:30:14;;;;;;;468.67;212.50;;;;;;;;;;5029578;28;20689;-48
2023/09/09 05:32:40;;;;;;;469.60;213.70;;;;;;;;;;5029202;28;20220;-48
2023/09/09 05:35:06;;;;;;;442.93;197.63;;;;;;;;;;5029323;28;20314;-48
2023/09/09 05:37:32;;;;;;;442.60;196.17;;;;;;;;;;5029736;28;20216;-48
2023/09/09 05:40:00;;;;;;;507.03;234.97;;;;;;;;;;5028883;28;20235;-47
2023/09/09 05:42:26;;;;;;;462.13;212.27;;;;;;;;;;5011736;28;20176;-47
2023/09/09 05:44:52;;;;;;;480.27;219.63;;;;;;;;;;5029173;28;20729;-47
2023/09/09 05:47:18;;;;;;;461.60;209.90;;;;;;;;;;5016220;28;20582;-47
2023/09/09 05:49:44;;;;;;;484.23;215.10;;;;;;;;;;5016675;28;20216;-47
2023/09/09 05:52:11;;;;;;;457.57;212.70;;;;;;;;;;5028882;28;20211;-47
2023/09/09 05:54:37;;;;;;;477.40;218.33;;;;;;;;;;5029813;28;20208;-47
2023/09/09 05:57:03;;;;;;;450.83;204.33;;;;;;;;;;5029273;28;20281;-47
2023/09/09 05:59:29;;;;;;;459.70;215.80;;;;;;;;;;5029054;28;20212;-47
2023/09/09 06:01:55;;;;;;;451.47;212.60;;;;;;;;;;5029082;28;20222;-47
2023/09/09 06:04:21;;;;;;;452.70;212.10;;;;;;;;;;5028592;28;20721;-47
2023/09/09 06:06:48;;;;;;;463.10;217.47;;;;;;;;;;5009085;28;20557;-47
2023/09/09 06:09:14;;;;;;;452.57;210.57;;;;;;;;;;5015332;28;20322;-47
2023/09/09 06:11:40;;;;;;;488.10;218.33;;;;;;;;;;5022084;28;20232;-47
2023/09/09 06:14:06;;;;;;;458.20;210.63;;;;;;;;;;5020170;28;20699;-47
2023/09/09 06:16:32;;;;;;;461.60;216.67;;;;;;;;;;5028972;28;20232;-47
2023/09/09 06:18:58;;;;;;;462.10;213.47;;;;;;;;;;5025377;28;20184;-47
2023/09/09 06:21:24;;;;;;;505.00;232.17;;;;;;;;;;5028953;28;20187;-47
2023/09/09 06:23:50;;;;;;;495.37;228.60;;;;;;;;;;5021062;28;20244;-47
2023/09/09 06:26:16;;;;;;;504.63;235.40;;;;;;;;;;5008035;28;20290;-46
2023/09/09 06:28:42;;;;;;;495.43;228.20;;;;;;;;;;5007888;28;20270;-47
2023/09/09 06:31:08;;;;;;;446.67;212.03;;;;;;;;;;5008617;28;20216;-47
2023/09/09 06:33:34;;;;;;;440.77;210.40;;;;;;;;;;5008847;28;20193;-47
2023/09/09 06:36:00;;;;;;;479.57;225.17;;;;;;;;;;5008553;28;20278;-47
2023/09/09 06:38:26;;;;;;;446.90;216.23;;;;;;;;;;5008365;28;20312;-47
2023/09/09 06:40:52;;;;;;;490.10;231.03;;;;;;;;;;4990855;28;20343;-47
2023/09/09 06:43:19;;;;;;;495.37;233.67;;;;;;;;;;5027147;28;20270;-47
2023/09/09 06:45:45;;;;;;;496.83;239.57;;;;;;;;;;5027844;28;20191;-47
2023/09/09 06:48:16;;;;;;;462.97;225.37;;;;;;;;;;5028318;28;20172;-47
2023/09/09 06:50:42;;;;;;;490.20;239.20;;;;;;;;;;5027793;28;20239;-46
2023/09/09 06:53:08;;;;;;;468.63;231.67;;;;;;;;;;5009766;28;20765;-47
2023/09/09 06:55:34;;;;;;;457.40;221.53;;;;;;;;;;5010266;28;20310;-47
2023/09/09 06:58:01;;;;;;;463.83;227.90;;;;;;;;;;5028395;28;20261;-47
2023/09/09 07:00:27;;;;;;;492.87;237.97;;;;;;;;;;5021037;28;20176;-47
2023/09/09 07:02:53;;;;;;;477.37;235.40;;;;;;;;;;5022959;28;20222;-47
2023/09/09 07:05:19;;;;;;;498.87;244.27;;;;;;;;;;5027355;28;20302;-47
2023/09/09 07:07:45;;;;;;;461.03;228.43;;;;;;;;;;5027472;28;20218;-47
2023/09/09 07:10:12;;;;;;;450.53;228.27;;;;;;;;;;5027843;28;20248;-45
2023/09/09 07:12:38;;;;;;;435.40;224.20;;;;;;;;;;5028577;28;20187;-45
2023/09/09 07:15:04;;;;;;;421.07;214.03;;;;;;;;;;5027347;28;20232;-45
2023/09/09 07:17:30;;;;;;;468.17;233.47;;;;;;;;;;5028054;28;20687;-45
2023/09/09 07:19:56;;;;;;;448.73;224.67;;;;;;;;;;5027821;28;20215;-45
2023/09/09 07:22:22;;;;;;;458.13;234.93;;;;;;;;;;5027572;28;20219;-45
2023/09/09 07:24:48;;;;;;;451.73;232.97;;;;;;;;;;5027649;28;20207;-45
2023/09/09 07:27:14;;;;;;;438.53;229.37;;;;;;;;;;5028462;28;20199;-45
2023/09/09 07:29:40;;;;;;;433.90;222.60;;;;;;;;;;5028147;28;20226;-45
2023/09/09 07:32:06;;;;;;;477.53;243.90;;;;;;;;;;5027711;28;20695;-45
2023/09/09 07:34:34;;;;;;;442.33;235.17;;;;;;;;;;5027714;28;20262;-45
2023/09/09 07:37:00;;;;;;;472.80;240.80;;;;;;;;;;5027718;28;20682;-45
2023/09/09 07:39:27;;;;;;;483.47;242.53;;;;;;;;;;5027256;28;20475;-45
2023/09/09 07:41:53;;;;;;;473.83;245.37;;;;;;;;;;5027109;28;20226;-45
2023/09/09 07:44:19;;;;;;;455.90;240.47;;;;;;;;;;5027041;28;20224;-45
2023/09/09 07:46:45;;;;;;;467.53;244.10;;;;;;;;;;5027140;28;20212;-45
2023/09/09 07:49:11;;;;;;;500.30;257.27;;;;;;;;;;5028212;28;20216;-49
2023/09/09 07:51:38;;;;;;;500.23;254.47;;;;;;;;;;5027174;28;20544;-49
2023/09/09 07:54:04;;;;;;;479.70;250.30;;;;;;;;;;5027668;28;20223;-49
2023/09/09 07:56:30;;;;;;;480.37;249.17;;;;;;;;;;5027667;28;20303;-49
2023/09/09 07:58:56;;;;;;;507.97;267.97;;;;;;;;;;5026325;28;20208;-49
2023/09/09 08:01:22;;;;;;;489.97;258.67;;;;;;;;;;5027160;28;20216;-48
2023/09/09 08:03:48;;;;;;;489.57;262.17;;;;;;;;;;5027561;28;20223;-49
2023/09/09 08:06:14;;;;;;;492.40;263.07;;;;;;;;;;5027182;28;20184;-49
2023/09/09 08:08:40;;;;;;;502.67;267.67;;;;;;;;;;5026076;28;20224;-48
2023/09/09 08:11:06;;;;;;;500.00;263.83;;;;;;;;;;5027848;28;20219;-49
2023/09/09 08:13:32;;;;;;;361.30;212.23;;;;;;;;;;5027701;28;20354;-49
2023/09/09 08:15:59;;;;;;;375.97;221.40;;;;;;;;;;5028483;28;20566;-49
2023/09/09 08:18:25;;;;;;;371.60;221.83;;;;;;;;;;5029157;28;20525;-49
2023/09/09 08:20:51;;;;;;;382.83;228.40;;;;;;;;;;5028383;28;20212;-49
2023/09/09 08:23:17;;;;;;;369.30;223.63;;;;;;;;;;5028575;28;20295;-49
2023/09/09 08:25:43;;;;;;;375.80;225.53;;;;;;;;;;5028652;28;20307;-49
2023/09/09 08:28:11;;;;;;;379.40;227.90;;;;;;;;;;5028826;28;20319;-49
2023/09/09 08:30:37;;;;;;;380.23;226.93;;;;;;;;;;5028727;28;20180;-49
2023/09/09 08:33:03;;;;;;;388.80;242.80;;;;;;;;;;5028358;28;20223;-49
2023/09/09 08:35:32;;;;;;;506.93;280.93;;;;;;;;;;5026728;28;20231;-49
2023/09/09 08:38:00;;;;;;;496.10;277.17;;;;;;;;;;5025804;28;20246;-49
2023/09/09 08:40:26;;;;;;;499.10;273.57;;;;;;;;;;5025728;28;20223;-49
2023/09/09 08:43:04;;;;;;;491.70;279.73;;;;;;;;;;5026047;28;20176;-49
2023/09/09 08:45:33;;;;;;;496.90;277.20;;;;;;;;;;5026667;28;20188;-49
2023/09/09 08:47:59;;;;;;;454.67;261.77;;;;;;;;;;5026493;28;20228;-49
2023/09/09 08:50:25;;;;;;;382.23;237.60;;;;;;;;;;5027707;28;20231;-49
2023/09/09 08:52:55;;;;;;;377.13;236.97;;;;;;;;;;5028027;28;20223;-48
2023/09/09 08:55:21;;;;;;;387.03;248.77;;;;;;;;;;5027782;28;20220;-49
2023/09/09 08:57:48;;;;;;;387.90;245.00;;;;;;;;;;5028433;28;20522;-48
2023/09/09 09:00:15;;;;;;;386.73;249.20;;;;;;;;;;5028418;28;20539;-49
2023/09/09 09:02:40;;;;;;;394.23;254.67;;;;;;;;;;5027605;28;20314;-50
2023/09/09 09:05:08;;;;;;;392.47;256.13;;;;;;;;;;5027793;28;20770;-49
2023/09/09 09:07:35;;;;;;;377.00;244.30;;;;;;;;;;5027935;28;20295;-49
2023/09/09 09:10:01;;;;;;;390.07;253.77;;;;;;;;;;5028065;28;20663;-49
2023/09/09 09:12:28;;;;;;;388.03;253.67;;;;;;;;;;5028475;28;20218;-49
2023/09/09 09:14:54;;;;;;;378.33;249.17;;;;;;;;;;5028046;28;20773;-49
2023/09/09 09:17:23;;;;;;;379.47;248.57;;;;;;;;;;5027449;28;20315;-49
2023/09/09 09:19:49;;;;;;;381.63;250.03;;;;;;;;;;5027718;28;20216;-49
2023/09/09 09:22:16;;;;;;;375.00;248.97;;;;;;;;;;5027839;28;20226;-49
2023/09/09 09:24:45;;;;;;;384.67;260.67;;;;;;;;;;5027898;28;20610;-49
2023/09/09 09:27:12;;;;;;;385.77;261.10;;;;;;;;;;5028158;28;20168;-49
2023/09/09 09:29:39;;;;;;;386.60;260.87;;;;;;;;;;5027445;28;20219;-49
2023/09/09 09:32:05;;;;;;;383.47;261.97;;;;;;;;;;5027835;28;20571;-49
2023/09/09 09:34:35;;;;;;;389.43;267.70;;;;;;;;;;5027487;28;20216;-49
2023/09/09 09:37:12;;;;;;;385.37;264.03;;;;;;;;;;5027612;28;20262;-49
2023/09/09 09:39:39;;;;;;;389.53;264.07;;;;;;;;;;5028228;28;20655;-48
2023/09/09 09:42:05;;;;;;;375.20;256.20;;;;;;;;;;5027829;28;20216;-49
2023/09/09 09:44:31;;;;;;;382.97;260.83;;;;;;;;;;5027439;28;20590;-49
2023/09/09 09:47:04;;;;;;;384.17;264.00;;;;;;;;;;5027516;28;20691;-49
2023/09/09 09:49:34;;;;;;;390.97;266.50;;;;;;;;;;5027495;28;20226;-49
2023/09/09 09:52:00;;;;;;;498.13;302.33;;;;;;;;;;5026840;28;20673;-49
2023/09/09 09:54:26;;;;;;;484.77;303.47;;;;;;;;;;5024838;28;20200;-49
2023/09/09 09:56:53;;;;;;;511.80;320.40;;;;;;;;;;5029963;28;20744;-49
2023/09/09 09:59:20;;;;;;;469.03;302.30;;;;;;;;;;5016692;28;20505;-49
2023/09/09 10:04:25;;;;;;;484.17;319.50;;;;;;;;;;4990455;28;20228;-72
2023/09/09 10:06:53;;;;;;;483.30;310.87;;;;;;;;;;5001463;28;20834;-71
2023/09/09 10:09:28;;;;;;;483.63;322.10;;;;;;;;;;5000093;28;20193;-72
2023/09/09 10:12:05;;;;;;;459.30;301.13;;;;;;;;;;5002119;28;20227;-72
2023/09/09 10:14:31;;;;;;;453.27;300.87;;;;;;;;;;5003850;28;20254;-72
2023/09/09 10:16:58;;;;;;;462.30;312.90;;;;;;;;;;4998531;28;20237;-71
2023/09/09 10:19:24;;;;;;;504.67;335.40;;;;;;;;;;4989406;28;20251;-77
2023/09/09 10:21:51;;;;;;;519.33;346.30;;;;;;;;;;4989595;28;20259;-78
2023/09/09 10:24:18;;;;;;;480.17;322.30;;;;;;;;;;5002975;28;20189;-76
2023/09/09 10:26:45;;;;;;;397.40;293.37;;;;;;;;;;5001182;28;20209;-78
2023/09/09 10:29:11;;;;;;;402.13;300.47;;;;;;;;;;5002998;28;20216;-77
2023/09/09 10:31:37;;;;;;;397.50;298.83;;;;;;;;;;5005660;28;20680;-77
2023/09/09 10:34:03;;;;;;;393.97;299.97;;;;;;;;;;5005567;28;20408;-77
2023/09/09 10:36:35;;;;;;;402.53;308.57;;;;;;;;;;5004736;28;20220;-77
2023/09/09 10:39:02;;;;;;;401.53;307.13;;;;;;;;;;5005033;28;20587;-77
2023/09/09 10:41:28;;;;;;;406.87;307.30;;;;;;;;;;5003282;28;20288;-77
2023/09/09 10:43:54;;;;;;;395.97;309.37;;;;;;;;;;5004381;28;20209;-78
2023/09/09 10:46:39;;;;;;;404.53;311.90;;;;;;;;;;5004306;28;20639;-78
2023/09/09 10:49:05;;;;;;;403.77;317.83;;;;;;;;;;5006105;28;20227;-78
2023/09/09 10:51:44;;;;;;;404.33;317.27;;;;;;;;;;5005260;28;20185;-77
2023/09/09 10:54:12;;;;;;;392.40;311.80;;;;;;;;;;5004474;28;20543;-78
2023/09/09 10:56:46;;;;;;;397.57;315.40;;;;;;;;;;5004187;28;20220;-77
2023/09/09 10:59:22;;;;;;;407.67;327.47;;;;;;;;;;5002499;28;20213;-77
2023/09/09 11:01:51;;;;;;;391.13;315.03;;;;;;;;;;5005160;28;20897;-77
2023/09/09 11:04:18;;;;;;;412.43;329.23;;;;;;;;;;5006431;28;20212;-78
2023/09/09 11:07:05;;;;;;;404.47;327.40;;;;;;;;;;5004894;28;20687;-77
2023/09/09 11:09:31;;;;;;;404.87;338.30;;;;;;;;;;5004256;28;20316;-78
2023/09/09 11:11:57;;;;;;;390.27;317.67;;;;;;;;;;5004281;28;20311;-77
2023/09/09 11:14:30;;;;;;;406.20;335.77;;;;;;;;;;5004694;28;20308;-78
2023/09/09 11:16:56;;;;;;;394.03;330.53;;;;;;;;;;5004686;28;20490;-78
2023/09/09 11:19:23;;;;;;;405.03;338.33;;;;;;;;;;5004985;28;20232;-78
2023/09/09 11:21:52;;;;;;;404.90;344.37;;;;;;;;;;5004730;28;20548;-77
2023/09/09 11:24:19;;;;;;;409.50;338.20;;;;;;;;;;5004094;28;20185;-78
2023/09/09 11:26:46;;;;;;;396.13;335.53;;;;;;;;;;4994448;28;20216;-77
2023/09/09 11:29:12;;;;;;;415.20;348.50;;;;;;;;;;5001631;28;20788;-77
2023/09/09 11:31:38;;;;;;;400.27;336.20;;;;;;;;;;5003784;28;20258;-77
2023/09/09 11:34:05;;;;;;;409.37;347.97;;;;;;;;;;5004459;28;20228;-78
2023/09/09 11:36:31;;;;;;;415.87;352.53;;;;;;;;;;5004259;28;20231;-77
2023/09/09 11:38:59;;;;;;;394.20;337.27;;;;;;;;;;5006426;28;20300;-77
2023/09/09 11:41:26;;;;;;;414.63;348.17;;;;;;;;;;5001631;28;20213;-78
2023/09/09 11:44:03;;;;;;;403.70;346.17;;;;;;;;;;5003843;28;20703;-77
2023/09/09 11:46:45;;;;;;;417.40;351.13;;;;;;;;;;5004600;28;20208;-77
2023/09/09 11:49:11;;;;;;;416.53;357.20;;;;;;;;;;5003189;28;20211;-78
2023/09/09 11:51:37;;;;;;;400.53;345.37;;;;;;;;;;5004602;28;20195;-77
2023/09/09 11:54:04;;;;;;;392.07;343.17;;;;;;;;;;5001066;28;20268;-77
2023/09/09 11:56:33;;;;;;;410.93;349.80;;;;;;;;;;4989643;28;20773;-77
2023/09/09 11:58:58;;;;;;;400.77;350.53;;;;;;;;;;5002740;28;20564;-78
2023/09/09 12:01:24;;;;;;;413.97;359.53;;;;;;;;;;4998846;28;20216;-77
2023/09/09 12:03:50;;;;;;;399.30;351.50;;;;;;;;;;4997689;28;20196;-78
2023/09/09 12:06:21;;;;;;;396.00;351.63;;;;;;;;;;5001126;28;20640;-78
2023/09/09 12:08:47;;;;;;;404.43;360.07;;;;;;;;;;4998643;28;20240;-78
2023/09/09 12:11:16;;;;;;;401.77;356.87;;;;;;;;;;4995756;28;20220;-77
2023/09/09 12:13:42;;;;;;;408.37;363.30;;;;;;;;;;4995854;28;20232;-78
2023/09/09 12:16:09;;;;;;;413.87;369.03;;;;;;;;;;4994607;28;20221;-78
2023/09/09 12:18:34;;;;;;;422.33;376.83;;;;;;;;;;5002243;28;20188;-77
2023/09/09 12:21:02;;;;;;;408.07;363.47;;;;;;;;;;5001189;28;20205;-77
2023/09/09 12:23:32;;;;;;;431.77;384.93;;;;;;;;;;5001323;28;20259;-79
2023/09/09 12:26:07;;;;;;;425.00;380.53;;;;;;;;;;4999915;28;20212;-78
2023/09/09 12:28:33;;;;;;;430.83;384.03;;;;;;;;;;5004909;28;20222;-78
2023/09/09 12:30:58;;;;;;;426.00;381.23;;;;;;;;;;5003346;28;20599;-78
2023/09/09 12:33:24;;;;;;;450.70;402.83;;;;;;;;;;5001653;28;20195;-78
2023/09/09 12:35:51;;;;;;;431.13;384.00;;;;;;;;;;5003355;28;20224;-78
2023/09/09 12:38:18;;;;;;;494.53;415.53;;;;;;;;;;4989950;28;20217;-77
2023/09/09 12:40:51;;;;;;;532.07;431.03;;;;;;;;;;4982311;28;20652;-74
2023/09/09 12:43:20;;;;;;;493.33;418.40;;;;;;;;;;4996952;28;20274;-76
2023/09/09 12:45:46;;;;;;;497.10;426.00;;;;;;;;;;4993289;28;20576;-75
2023/09/09 12:48:12;;;;;;;464.13;403.77;;;;;;;;;;4993497;28;20617;-75
2023/09/09 12:50:38;;;;;;;502.93;429.43;;;;;;;;;;4992403;28;20212;-75
2023/09/09 12:53:04;;;;;;;502.17;430.67;;;;;;;;;;4986083;28;20702;-74
2023/09/09 12:55:30;;;;;;;559.33;471.47;;;;;;;;;;4976627;28;20217;-71
2023/09/09 12:57:56;;;;;;;531.33;445.47;;;;;;;;;;4984116;28;20224;-74
2023/09/09 13:00:22;;;;;;;509.13;430.90;;;;;;;;;;4981612;28;20272;-67
2023/09/09 13:02:48;;;;;;;536.10;443.10;;;;;;;;;;4986075;28;20216;-66
2023/09/09 13:05:14;;;;;;;504.07;442.83;;;;;;;;;;4983749;28;20213;-66
2023/09/09 13:07:40;;;;;;;561.13;484.47;;;;;;;;;;4984081;28;20220;-67
2023/09/09 13:10:07;;;;;;;508.83;437.47;;;;;;;;;;4994428;28;20220;-66
2023/09/09 13:12:33;;;;;;;513.70;439.80;;;;;;;;;;4985600;28;20325;-67
2023/09/09 13:14:59;;;;;;;489.80;435.53;;;;;;;;;;4988585;28;20691;-67
2023/09/09 13:17:25;;;;;;;501.77;446.80;;;;;;;;;;4996423;28;20279;-67
2023/09/09 13:19:51;;;;;;;515.90;459.33;;;;;;;;;;4986312;28;20217;-67
2023/09/09 13:22:16;;;;;;;515.23;457.97;;;;;;;;;;4988768;28;20651;-68
2023/09/09 13:24:42;;;;;;;539.17;472.67;;;;;;;;;;4984340;28;21350;-68
2023/09/09 13:27:08;;;;;;;522.13;465.03;;;;;;;;;;4983597;28;20272;-66
2023/09/09 13:29:34;;;;;;;574.67;495.97;;;;;;;;;;4973551;28;20303;-69
2023/09/09 13:32:00;;;;;;;519.10;462.98;;;;;;;;;;4981642;28;20304;-68
2023/09/09 13:34:26;;;;;;;556.45;494.17;;;;;;;;;;4987327;28;20323;-69
2023/09/09 13:36:52;;;;;;;492.48;445.52;;;;;;;;;;4996172;28;20275;-68
2023/09/09 13:39:18;;;;;;;498.60;450.70;;;;;;;;;;4995084;28;20193;-68
2023/09/09 13:41:44;;;;;;;503.70;455.92;;;;;;;;;;4997644;28;20209;-67
2023/09/09 13:44:10;;;;;;;497.88;450.95;;;;;;;;;;4999289;28;20628;-67
2023/09/09 13:46:36;;;;;;;536.83;485.73;;;;;;;;;;4998768;28;20722;-67
2023/09/09 13:49:02;;;;;;;510.55;461.73;;;;;;;;;;5000015;28;20222;-69
2023/09/09 13:51:28;;;;;;;526.03;476.27;;;;;;;;;;4992981;28;20186;-69